Time;durP1;ratioP1;P1;durP2;ratioP2;P2;SDS_P1;SDS_P2;PMS_P1;PMS_P2;Temp;Humidity;BMP_temperature;BMP_pressure;BME280_temperature;BME280_humidity;BME280_pressure;Samples;Min_cycle;Max_cycle;Signal;HPM_P1;HPM_P2
2023/03/14 00:02:13;;;;;;;31.23;19.13;;;;;;;-141.22;100.00;65034.22;4959050;28;21068;-43
2023/03/14 00:04:41;;;;;;;22.23;18.20;;;;;;;-141.22;100.00;65034.22;4958879;28;20463;-44
2023/03/14 00:07:11;;;;;;;20.97;18.13;;;;;;;-141.22;100.00;65034.22;4959332;28;20486;-46
2023/03/14 00:09:39;;;;;;;30.53;18.67;;;;;;;-141.22;100.00;65034.22;4960868;28;20418;-44
2023/03/14 00:12:07;;;;;;;21.43;19.03;;;;;;;-141.22;100.00;65034.22;4961273;28;20493;-43
2023/03/14 00:14:35;;;;;;;26.47;20.03;;;;;;;-141.22;100.00;65034.22;4963016;28;20435;-43
2023/03/14 00:17:03;;;;;;;28.70;19.40;;;;;;;-141.22;100.00;65034.22;4962552;28;20467;-47
2023/03/14 00:19:31;;;;;;;25.23;18.50;;;;;;;-141.22;100.00;65034.22;4962352;28;20438;-44
2023/03/14 00:21:58;;;;;;;23.77;20.37;;;;;;;-141.22;100.00;65034.22;4962270;28;20467;-47
2023/03/14 00:24:27;;;;;;;25.17;18.43;;;;;;;-141.22;100.00;65034.22;4962763;28;20440;-48
2023/03/14 00:26:55;;;;;;;25.10;19.13;;;;;;;-141.22;100.00;65034.22;4962211;28;20488;-47
2023/03/14 00:29:23;;;;;;;33.33;20.10;;;;;;;-141.22;100.00;65034.22;4962291;28;20442;-46
2023/03/14 00:31:50;;;;;;;27.03;19.60;;;;;;;-141.22;100.00;65034.22;4961817;28;20554;-47
2023/03/14 00:34:18;;;;;;;20.87;19.00;;;;;;;-141.22;100.00;65034.22;4962753;28;20439;-48
2023/03/14 00:36:46;;;;;;;23.63;19.43;;;;;;;-141.22;100.00;65034.22;4962330;28;20485;-44
2023/03/14 00:39:13;;;;;;;20.93;18.70;;;;;;;-141.22;100.00;65034.22;4962801;28;20483;-44
2023/03/14 00:41:42;;;;;;;31.97;20.10;;;;;;;-141.22;100.00;65034.22;4961318;28;20460;-44
2023/03/14 00:44:10;;;;;;;26.50;19.80;;;;;;;-141.22;100.00;65034.22;4962679;28;20432;-45
2023/03/14 00:46:39;;;;;;;24.93;19.47;;;;;;;-141.22;100.00;65034.22;4961771;28;20562;-43
2023/03/14 00:49:07;;;;;;;27.07;21.30;;;;;;;-141.22;100.00;65034.22;4962638;28;20435;-45
2023/03/14 00:51:35;;;;;;;22.10;19.50;;;;;;;-141.22;100.00;65034.22;4960984;28;20459;-46
2023/03/14 00:54:03;;;;;;;23.03;20.10;;;;;;;-141.22;100.00;65034.22;4962363;28;20440;-46
2023/03/14 00:56:31;;;;;;;25.03;20.20;;;;;;;-141.22;100.00;65034.22;4961912;28;20463;-43
2023/03/14 00:59:00;;;;;;;32.50;19.73;;;;;;;-141.22;100.00;65034.22;4961774;28;20881;-44
2023/03/14 01:01:28;;;;;;;22.57;20.23;;;;;;;-141.22;100.00;65034.22;4962018;28;20488;-45
2023/03/14 01:03:56;;;;;;;26.10;21.50;;;;;;;-141.22;100.00;65034.22;4962291;28;20439;-43
2023/03/14 01:06:26;;;;;;;23.10;20.80;;;;;;;-141.22;100.00;65034.22;4961344;28;20532;-44
2023/03/14 01:08:55;;;;;;;23.33;20.97;;;;;;;-141.22;100.00;65034.22;4962380;28;20464;-45
2023/03/14 01:11:25;;;;;;;22.77;20.37;;;;;;;-141.22;100.00;65034.22;4961054;28;20571;-44
2023/03/14 01:13:53;;;;;;;21.97;19.70;;;;;;;-141.22;100.00;65034.22;4961603;28;20436;-43
2023/03/14 01:16:24;;;;;;;24.10;21.70;;;;;;;-141.22;100.00;65034.22;4961708;28;20452;-48
2023/03/14 01:18:51;;;;;;;29.63;22.53;;;;;;;-141.22;100.00;65034.22;4961568;28;20456;-46
2023/03/14 01:21:21;;;;;;;25.17;21.10;;;;;;;-141.22;100.00;65034.22;4960116;28;20463;-46
2023/03/14 01:23:50;;;;;;;26.13;21.97;;;;;;;-141.22;100.00;65034.22;4961964;28;20813;-43
2023/03/14 01:26:33;;;;;;;22.57;20.20;;;;;;;-141.22;100.00;65034.22;4961204;28;20511;-47
2023/03/14 01:29:01;;;;;;;28.57;20.80;;;;;;;-141.22;100.00;65034.22;4961185;28;20428;-43
2023/03/14 01:31:30;;;;;;;24.90;22.30;;;;;;;-141.22;100.00;65034.22;4961427;28;20464;-46
2023/03/14 01:33:58;;;;;;;27.50;21.90;;;;;;;-141.22;100.00;65034.22;4961847;28;20440;-46
2023/03/14 01:36:40;;;;;;;27.83;20.93;;;;;;;-141.22;100.00;65034.22;4961364;28;20495;-44
2023/03/14 01:39:09;;;;;;;28.83;21.40;;;;;;;-141.22;100.00;65034.22;4960554;28;20451;-48
2023/03/14 01:41:37;;;;;;;22.93;20.87;;;;;;;-141.22;100.00;65034.22;4960418;28;20472;-45
2023/03/14 01:44:05;;;;;;;30.57;21.33;;;;;;;-141.22;100.00;65034.22;4961008;28;20441;-44
2023/03/14 01:46:39;;;;;;;28.50;21.87;;;;;;;-141.22;100.00;65034.22;4961058;28;20490;-46
2023/03/14 01:49:21;;;;;;;22.57;20.30;;;;;;;-141.22;100.00;65034.22;4961550;28;20431;-43
2023/03/14 01:51:55;;;;;;;23.77;20.57;;;;;;;-141.22;100.00;65034.22;4961059;28;20459;-43
2023/03/14 01:54:27;;;;;;;24.57;20.57;;;;;;;-141.22;100.00;65034.22;4961161;28;20416;-43
2023/03/14 01:56:58;;;;;;;27.67;21.83;;;;;;;-141.22;100.00;65034.22;4961612;28;20448;-44
2023/03/14 01:59:27;;;;;;;26.20;21.00;;;;;;;-141.22;100.00;65034.22;4961238;28;20515;-46
2023/03/14 02:01:56;;;;;;;28.93;21.97;;;;;;;-141.22;100.00;65034.22;4960020;28;20484;-44
2023/03/14 02:04:26;;;;;;;24.33;19.90;;;;;;;-141.22;100.00;65034.22;4960864;28;20454;-44
2023/03/14 02:07:00;;;;;;;22.77;20.80;;;;;;;-141.22;100.00;65034.22;4961387;28;20574;-48
2023/03/14 02:09:28;;;;;;;27.57;21.50;;;;;;;-141.22;100.00;65034.22;4961063;28;20442;-45
2023/03/14 02:11:56;;;;;;;27.10;22.00;;;;;;;-141.22;100.00;65034.22;4960373;28;20459;-47
2023/03/14 02:14:30;;;;;;;28.57;21.20;;;;;;;-141.22;100.00;65034.22;4961234;28;20436;-47
2023/03/14 02:17:01;;;;;;;26.90;21.07;;;;;;;-141.22;100.00;65034.22;4960654;28;20459;-46
2023/03/14 02:19:40;;;;;;;23.10;20.20;;;;;;;-141.22;100.00;65034.22;4960502;28;20967;-47
2023/03/14 02:22:11;;;;;;;22.80;20.43;;;;;;;-141.22;100.00;65034.22;4960719;28;20478;-46
2023/03/14 02:24:44;;;;;;;33.10;21.77;;;;;;;-141.22;100.00;65034.22;4960637;28;20436;-44
2023/03/14 02:27:14;;;;;;;24.30;21.80;;;;;;;-141.22;100.00;65034.22;4960917;28;20479;-44
2023/03/14 02:29:49;;;;;;;23.10;20.80;;;;;;;-141.22;100.00;65034.22;4961335;28;20453;-48
2023/03/14 02:32:18;;;;;;;25.27;21.67;;;;;;;-141.22;100.00;65034.22;4959839;28;20467;-44
2023/03/14 02:34:50;;;;;;;23.33;19.70;;;;;;;-141.22;100.00;65034.22;4960482;28;20442;-45
2023/03/14 02:37:21;;;;;;;24.13;21.47;;;;;;;-141.22;100.00;65034.22;4960373;28;20426;-46
2023/03/14 02:39:49;;;;;;;32.13;21.47;;;;;;;-141.22;100.00;65034.22;4961176;28;20474;-43
2023/03/14 02:42:19;;;;;;;24.73;20.67;;;;;;;-141.22;100.00;65034.22;4960237;28;21060;-44
2023/03/14 02:44:55;;;;;;;21.90;20.20;;;;;;;-141.22;100.00;65034.22;4960031;28;20454;-44
2023/03/14 02:47:27;;;;;;;27.50;22.77;;;;;;;-141.22;100.00;65034.22;4959641;28;20459;-46
2023/03/14 02:50:02;;;;;;;24.17;21.57;;;;;;;-141.22;100.00;65034.22;4959866;28;20435;-44
2023/03/14 02:52:30;;;;;;;27.03;22.60;;;;;;;-141.22;100.00;65034.22;4960100;28;20415;-46
2023/03/14 02:54:57;;;;;;;22.77;20.60;;;;;;;-141.22;100.00;65034.22;4959728;28;20447;-46
2023/03/14 02:57:26;;;;;;;24.80;20.97;;;;;;;-141.22;100.00;65034.22;4960840;28;20439;-47
2023/03/14 02:59:54;;;;;;;23.83;21.47;;;;;;;-141.22;100.00;65034.22;4959126;28;20439;-44
2023/03/14 03:02:22;;;;;;;24.17;21.60;;;;;;;-141.22;100.00;65034.22;4960071;28;20446;-48
2023/03/14 03:04:50;;;;;;;23.77;21.17;;;;;;;-141.22;100.00;65034.22;4959980;28;20806;-45
2023/03/14 03:07:18;;;;;;;32.27;22.90;;;;;;;-141.22;100.00;65034.22;4959678;28;20846;-45
2023/03/14 03:09:46;;;;;;;27.27;21.77;;;;;;;-141.22;100.00;65034.22;4960134;28;20459;-47
2023/03/14 03:12:14;;;;;;;27.33;22.20;;;;;;;-141.22;100.00;65034.22;4959342;28;20502;-46
2023/03/14 03:14:43;;;;;;;31.33;24.83;;;;;;;-141.22;100.00;65034.22;4959662;28;20439;-45
2023/03/14 03:17:10;;;;;;;23.60;21.10;;;;;;;-141.22;100.00;65034.22;4960104;28;20487;-46
2023/03/14 03:19:39;;;;;;;29.00;23.77;;;;;;;-141.22;100.00;65034.22;4960026;28;20431;-45
2023/03/14 03:22:07;;;;;;;26.37;22.00;;;;;;;-141.22;100.00;65034.22;4958610;28;21012;-44
2023/03/14 03:24:35;;;;;;;25.93;22.43;;;;;;;-141.22;100.00;65034.22;4959838;28;20810;-46
2023/03/14 03:27:02;;;;;;;24.23;21.97;;;;;;;-141.22;100.00;65034.22;4959280;28;20488;-44
2023/03/14 03:29:30;;;;;;;24.07;21.60;;;;;;;-141.22;100.00;65034.22;4959279;28;20439;-43
2023/03/14 03:31:59;;;;;;;24.87;22.57;;;;;;;-141.22;100.00;65034.22;4959386;28;20554;-50
2023/03/14 03:34:28;;;;;;;22.93;21.03;;;;;;;-141.22;100.00;65034.22;4959620;28;21040;-45
2023/03/14 03:36:57;;;;;;;25.43;22.97;;;;;;;-141.22;100.00;65034.22;4959556;28;20473;-44
2023/03/14 03:39:24;;;;;;;24.50;22.00;;;;;;;-141.22;100.00;65034.22;4958976;28;20511;-44
2023/03/14 03:41:52;;;;;;;25.90;23.20;;;;;;;-141.22;100.00;65034.22;4958979;28;21021;-43
2023/03/14 03:44:20;;;;;;;24.57;22.03;;;;;;;-141.22;100.00;65034.22;4961462;28;20816;-48
2023/03/14 03:46:48;;;;;;;25.30;23.00;;;;;;;-141.22;100.00;65034.22;4963701;28;20451;-43
2023/03/14 03:49:17;;;;;;;28.00;23.10;;;;;;;-141.22;100.00;65034.22;4963213;28;20479;-49
2023/03/14 03:51:44;;;;;;;25.83;23.27;;;;;;;-141.22;100.00;65034.22;4963257;28;20514;-46
2023/03/14 03:54:12;;;;;;;28.97;23.27;;;;;;;-141.22;100.00;65034.22;4963673;28;20491;-51
2023/03/14 03:56:40;;;;;;;25.03;22.50;;;;;;;-141.22;100.00;65034.22;4963507;28;20456;-52
2023/03/14 03:59:07;;;;;;;26.97;23.13;;;;;;;-141.22;100.00;65034.22;4963648;28;20435;-44
2023/03/14 04:01:35;;;;;;;24.47;22.30;;;;;;;-141.22;100.00;65034.22;4962189;28;20494;-46
2023/03/14 04:04:03;;;;;;;25.57;23.20;;;;;;;-141.22;100.00;65034.22;4963840;28;20436;-47
2023/03/14 04:06:33;;;;;;;24.70;22.40;;;;;;;-141.22;100.00;65034.22;4963085;28;20973;-46
2023/03/14 04:09:01;;;;;;;24.77;22.40;;;;;;;-141.22;100.00;65034.22;4963180;28;20502;-44
2023/03/14 04:11:28;;;;;;;24.73;22.27;;;;;;;-141.22;100.00;65034.22;4962513;28;20495;-46
2023/03/14 04:13:57;;;;;;;25.13;22.77;;;;;;;-141.22;100.00;65034.22;4963502;28;20442;-45
2023/03/14 04:16:26;;;;;;;26.10;23.00;;;;;;;-141.22;100.00;65034.22;4963363;28;20464;-46
2023/03/14 04:18:54;;;;;;;25.60;23.50;;;;;;;-141.22;100.00;65034.22;4963042;28;20432;-45
2023/03/14 04:21:21;;;;;;;25.73;23.00;;;;;;;-141.22;100.00;65034.22;4962606;28;20470;-44
2023/03/14 04:23:51;;;;;;;28.23;22.80;;;;;;;-141.22;100.00;65034.22;4963249;28;20439;-49
2023/03/14 04:26:19;;;;;;;26.37;24.07;;;;;;;-141.22;100.00;65034.22;4962797;28;20645;-44
2023/03/14 04:28:46;;;;;;;24.50;22.60;;;;;;;-141.22;100.00;65034.22;4963329;28;20479;-44
2023/03/14 04:31:19;;;;;;;24.70;23.13;;;;;;;-141.22;100.00;65034.22;4962320;28;20806;-44
2023/03/14 04:33:47;;;;;;;24.97;23.30;;;;;;;-141.22;100.00;65034.22;4963031;28;20416;-44
2023/03/14 04:36:15;;;;;;;24.67;22.83;;;;;;;-141.22;100.00;65034.22;4962655;28;20509;-49
2023/03/14 04:38:43;;;;;;;23.33;21.93;;;;;;;-141.22;100.00;65034.22;4962444;28;20431;-47
2023/03/14 04:41:12;;;;;;;23.80;22.30;;;;;;;-141.22;100.00;65034.22;4961943;28;20483;-46
2023/03/14 04:43:39;;;;;;;23.90;22.53;;;;;;;-141.22;100.00;65034.22;4962890;28;20435;-46
2023/03/14 04:46:07;;;;;;;25.50;23.63;;;;;;;-141.22;100.00;65034.22;4963300;28;20829;-45
2023/03/14 04:48:35;;;;;;;25.17;23.50;;;;;;;-141.22;100.00;65034.22;4962611;28;20870;-48
2023/03/14 04:51:03;;;;;;;25.83;23.60;;;;;;;-141.22;100.00;65034.22;4962555;28;20462;-49
2023/03/14 04:53:30;;;;;;;25.80;24.10;;;;;;;-141.22;100.00;65034.22;4962403;28;20442;-44
2023/03/14 04:55:59;;;;;;;24.80;23.30;;;;;;;-141.22;100.00;65034.22;4962053;28;20462;-48
2023/03/14 04:58:28;;;;;;;25.23;23.87;;;;;;;-141.22;100.00;65034.22;4962488;28;20426;-50
2023/03/14 05:00:56;;;;;;;25.20;23.40;;;;;;;-141.22;100.00;65034.22;4961498;28;20463;-44
2023/03/14 05:03:24;;;;;;;24.50;23.00;;;;;;;-141.22;100.00;65034.22;4961837;28;20775;-50
2023/03/14 05:05:51;;;;;;;25.70;24.17;;;;;;;-141.22;100.00;65034.22;4961974;28;20456;-45
2023/03/14 05:08:19;;;;;;;26.47;24.53;;;;;;;-141.22;100.00;65034.22;4962022;28;20993;-44
2023/03/14 05:10:53;;;;;;;25.83;24.40;;;;;;;-141.22;100.00;65034.22;4961641;28;20463;-46
2023/03/14 05:13:21;;;;;;;26.90;24.93;;;;;;;-141.22;100.00;65034.22;4962157;28;20487;-46
2023/03/14 05:15:50;;;;;;;29.13;27.03;;;;;;;-141.22;100.00;65034.22;4961817;28;20459;-47
2023/03/14 05:18:19;;;;;;;28.30;26.57;;;;;;;-141.22;100.00;65034.22;4962001;28;20420;-49
2023/03/14 05:20:47;;;;;;;27.70;25.93;;;;;;;-141.22;100.00;65034.22;4962173;28;20466;-46
2023/03/14 05:23:14;;;;;;;27.70;26.10;;;;;;;-141.22;100.00;65034.22;4962280;28;20440;-44
2023/03/14 05:25:44;;;;;;;28.07;26.43;;;;;;;-141.22;100.00;65034.22;4961875;28;20469;-49
2023/03/14 05:28:11;;;;;;;28.40;26.50;;;;;;;-141.22;100.00;65034.22;4961943;28;20432;-46
2023/03/14 05:30:39;;;;;;;28.27;26.43;;;;;;;-141.22;100.00;65034.22;4962045;28;20467;-44
2023/03/14 05:33:08;;;;;;;28.73;27.10;;;;;;;-141.22;100.00;65034.22;4962190;28;20455;-47
2023/03/14 05:35:36;;;;;;;29.93;27.93;;;;;;;-141.22;100.00;65034.22;4962059;28;20468;-47
2023/03/14 05:38:04;;;;;;;28.30;26.70;;;;;;;-141.22;100.00;65034.22;4961587;28;20443;-47
2023/03/14 05:40:32;;;;;;;27.60;26.10;;;;;;;-141.22;100.00;65034.22;4961556;28;20464;-43
2023/03/14 05:43:00;;;;;;;28.77;26.90;;;;;;;-141.22;100.00;65034.22;4961265;28;20442;-44
2023/03/14 05:45:27;;;;;;;30.20;27.70;;;;;;;-141.22;100.00;65034.22;4961544;28;20584;-46
2023/03/14 05:47:55;;;;;;;29.00;27.20;;;;;;;-141.22;100.00;65034.22;4961162;28;20436;-45
2023/03/14 05:50:24;;;;;;;29.63;27.73;;;;;;;-141.22;100.00;65034.22;4960180;28;20459;-46
2023/03/14 05:52:52;;;;;;;31.00;28.80;;;;;;;-141.22;100.00;65034.22;4961488;28;20435;-46
2023/03/14 05:55:19;;;;;;;30.97;28.93;;;;;;;-141.22;100.00;65034.22;4961703;28;20485;-46
2023/03/14 05:57:48;;;;;;;31.33;29.30;;;;;;;-141.22;100.00;65034.22;4961864;28;20474;-47
2023/03/14 06:00:16;;;;;;;32.77;30.50;;;;;;;-141.22;100.00;65034.22;4961489;28;20459;-45
2023/03/14 06:02:43;;;;;;;32.97;31.17;;;;;;;-141.22;100.00;65034.22;4961382;28;20432;-44
2023/03/14 06:05:11;;;;;;;34.97;32.67;;;;;;;-141.22;100.00;65034.22;4961238;28;20442;-45
2023/03/14 06:07:40;;;;;;;35.87;32.97;;;;;;;-141.22;100.00;65034.22;4960624;28;20479;-47
2023/03/14 06:10:09;;;;;;;36.33;33.63;;;;;;;-141.22;100.00;65034.22;4961159;28;20890;-44
2023/03/14 06:12:37;;;;;;;34.47;32.20;;;;;;;-141.22;100.00;65034.22;4961201;28;20436;-43
2023/03/14 06:15:06;;;;;;;36.90;34.60;;;;;;;-141.22;100.00;65034.22;4961436;28;20522;-44
2023/03/14 06:17:34;;;;;;;37.60;34.73;;;;;;;-141.22;100.00;65034.22;4960901;28;20436;-44
2023/03/14 06:20:02;;;;;;;38.70;35.97;;;;;;;-141.22;100.00;65034.22;4958997;28;20436;-43
2023/03/14 06:22:29;;;;;;;40.30;38.20;;;;;;;-141.22;100.00;65034.22;4961077;28;20451;-45
2023/03/14 06:24:58;;;;;;;41.60;39.00;;;;;;;-141.22;100.00;65034.22;4960918;28;20428;-46
2023/03/14 06:27:26;;;;;;;41.93;39.40;;;;;;;-141.22;100.00;65034.22;4961226;28;20872;-43
2023/03/14 06:29:54;;;;;;;42.30;40.10;;;;;;;-141.22;100.00;65034.22;4960329;28;20578;-49
2023/03/14 06:32:22;;;;;;;43.10;40.60;;;;;;;-141.22;100.00;65034.22;4960260;28;20800;-45
2023/03/14 06:34:49;;;;;;;44.97;42.13;;;;;;;-141.22;100.00;65034.22;4960700;28;20464;-46
2023/03/14 06:37:17;;;;;;;44.23;41.73;;;;;;;-141.22;100.00;65034.22;4960870;28;20471;-46
2023/03/14 06:39:47;;;;;;;43.27;40.80;;;;;;;-141.22;100.00;65034.22;4961537;28;20432;-44
2023/03/14 06:42:16;;;;;;;44.40;41.13;;;;;;;-141.22;100.00;65034.22;4959473;28;20498;-44
2023/03/14 06:44:44;;;;;;;42.40;40.03;;;;;;;-141.22;100.00;65034.22;4960777;28;20553;-44
2023/03/14 06:47:12;;;;;;;39.87;37.57;;;;;;;-141.22;100.00;65034.22;4960508;28;20460;-44
2023/03/14 06:49:39;;;;;;;41.27;38.73;;;;;;;-141.22;100.00;65034.22;4960508;28;20837;-44
2023/03/14 06:52:07;;;;;;;40.87;38.50;;;;;;;-141.22;100.00;65034.22;4960203;28;20478;-43
2023/03/14 06:54:35;;;;;;;41.47;38.87;;;;;;;-141.22;100.00;65034.22;4959618;28;20432;-44
2023/03/14 06:57:02;;;;;;;43.83;39.63;;;;;;;-141.22;100.00;65034.22;4960421;28;20466;-46
2023/03/14 06:59:31;;;;;;;41.03;38.50;;;;;;;-141.22;100.00;65034.22;4959867;28;20436;-44
2023/03/14 07:01:59;;;;;;;40.50;37.77;;;;;;;-141.22;100.00;65034.22;4959224;28;20566;-45
2023/03/14 07:04:27;;;;;;;43.17;40.87;;;;;;;-141.22;100.00;65034.22;4960396;28;20442;-45
2023/03/14 07:06:54;;;;;;;44.07;41.73;;;;;;;-141.22;100.00;65034.22;4959691;28;20491;-44
2023/03/14 07:09:22;;;;;;;43.87;41.10;;;;;;;-141.22;100.00;65034.22;4960362;28;20993;-44
2023/03/14 07:11:50;;;;;;;44.83;42.13;;;;;;;-141.22;100.00;65034.22;4959184;28;20468;-45
2023/03/14 07:14:17;;;;;;;46.77;43.07;;;;;;;-141.22;100.00;65034.22;4959889;28;20436;-44
2023/03/14 07:16:48;;;;;;;46.73;44.03;;;;;;;-141.22;100.00;65034.22;4959682;28;20467;-46
2023/03/14 07:19:16;;;;;;;46.57;43.73;;;;;;;-141.22;100.00;65034.22;4959750;28;20439;-45
2023/03/14 07:21:44;;;;;;;44.47;42.33;;;;;;;-141.22;100.00;65034.22;4959732;28;20490;-46
2023/03/14 07:24:12;;;;;;;47.80;45.03;;;;;;;-141.22;100.00;65034.22;4959997;28;20448;-44
2023/03/14 07:26:40;;;;;;;48.27;45.17;;;;;;;-141.22;100.00;65034.22;4960120;28;20874;-48
2023/03/14 07:29:08;;;;;;;46.50;44.10;;;;;;;-141.22;100.00;65034.22;4960025;28;20983;-44
2023/03/14 07:31:35;;;;;;;45.53;42.87;;;;;;;-141.22;100.00;65034.22;4959001;28;20555;-45
2023/03/14 07:34:04;;;;;;;45.10;42.30;;;;;;;-141.22;100.00;65034.22;4959780;28;20442;-44
2023/03/14 07:36:32;;;;;;;46.40;43.77;;;;;;;-141.22;100.00;65034.22;4959713;28;20468;-44
2023/03/14 07:39:00;;;;;;;46.37;43.60;;;;;;;-141.22;100.00;65034.22;4960353;28;20850;-46
2023/03/14 07:41:28;;;;;;;47.00;44.40;;;;;;;-141.22;100.00;65034.22;4959006;28;20463;-46
2023/03/14 07:43:55;;;;;;;47.00;44.57;;;;;;;-141.22;100.00;65034.22;4960042;28;20446;-44
2023/03/14 07:46:23;;;;;;;48.13;44.83;;;;;;;-141.22;100.00;65034.22;4959885;28;21000;-45
2023/03/14 07:48:51;;;;;;;47.63;44.70;;;;;;;-141.22;100.00;65034.22;4959674;28;20440;-49
2023/03/14 07:51:20;;;;;;;49.80;46.80;;;;;;;-141.22;100.00;65034.22;4955733;28;20493;-47
2023/03/14 07:53:47;;;;;;;45.67;43.50;;;;;;;-141.22;100.00;65034.22;4953392;28;20495;-44
2023/03/14 07:56:15;;;;;;;352.53;338.63;;;;;;;-141.22;100.00;65034.22;4953308;28;20568;-45
2023/03/14 07:58:43;;;;;;;424.40;406.00;;;;;;;-141.22;100.00;65034.22;4953244;28;20435;-44
2023/03/14 08:01:11;;;;;;;450.43;429.43;;;;;;;-141.22;100.00;65034.22;4952565;28;20474;-45
2023/03/14 08:03:38;;;;;;;437.47;417.90;;;;;;;-141.22;100.00;65034.22;4952739;28;20945;-44
2023/03/14 08:06:07;;;;;;;406.40;388.50;;;;;;;-141.22;100.00;65034.22;4953190;28;20483;-46
2023/03/14 08:08:36;;;;;;;420.33;402.33;;;;;;;-141.22;100.00;65034.22;4953007;28;20436;-46
2023/03/14 08:11:04;;;;;;;417.87;399.87;;;;;;;-141.22;100.00;65034.22;4952928;28;20483;-49
2023/03/14 08:13:32;;;;;;;392.97;376.27;;;;;;;-141.22;100.00;65034.22;4953454;28;20543;-46
2023/03/14 08:15:59;;;;;;;370.07;354.33;;;;;;;-141.22;100.00;65034.22;4953665;28;20455;-43
2023/03/14 08:18:27;;;;;;;367.10;351.83;;;;;;;-141.22;100.00;65034.22;4953680;28;20505;-43
2023/03/14 08:20:55;;;;;;;351.47;337.27;;;;;;;-141.22;100.00;65034.22;4951656;28;20467;-43
2023/03/14 08:23:23;;;;;;;361.80;347.00;;;;;;;-141.22;100.00;65034.22;4953711;28;20467;-44
2023/03/14 08:25:53;;;;;;;379.67;363.57;;;;;;;-141.22;100.00;65034.22;4953884;28;20462;-45
2023/03/14 08:28:21;;;;;;;383.00;366.50;;;;;;;-141.22;100.00;65034.22;4953841;28;21021;-45
2023/03/14 08:30:48;;;;;;;427.60;407.60;;;;;;;-141.22;100.00;65034.22;4954981;28;20474;-43
2023/03/14 08:33:16;;;;;;;433.70;412.80;;;;;;;-141.22;100.00;65034.22;4957260;28;20432;-46
2023/03/14 08:35:43;;;;;;;404.97;386.47;;;;;;;-141.22;100.00;65034.22;4957179;28;20474;-43
2023/03/14 08:38:11;;;;;;;410.20;391.20;;;;;;;-141.22;100.00;65034.22;4957853;28;20436;-46
2023/03/14 08:40:39;;;;;;;429.23;408.93;;;;;;;-141.22;100.00;65034.22;4957628;28;20549;-46
2023/03/14 08:43:08;;;;;;;428.37;407.80;;;;;;;-141.22;100.00;65034.22;4957997;28;20436;-45
2023/03/14 08:45:36;;;;;;;448.13;425.83;;;;;;;-141.22;100.00;65034.22;4958279;28;20455;-42
2023/03/14 08:48:04;;;;;;;460.37;435.67;;;;;;;-141.22;100.00;65034.22;4958624;28;20439;-44
2023/03/14 08:50:31;;;;;;;461.00;436.60;;;;;;;-141.22;100.00;65034.22;4955735;28;20478;-43
2023/03/14 08:53:00;;;;;;;466.90;442.30;;;;;;;-141.22;100.00;65034.22;4958206;28;20958;-42
2023/03/14 08:55:28;;;;;;;467.07;442.57;;;;;;;-141.22;100.00;65034.22;4958700;28;20462;-44
2023/03/14 08:57:55;;;;;;;467.73;443.50;;;;;;;-141.22;100.00;65034.22;4958738;28;20982;-44
2023/03/14 09:00:24;;;;;;;454.67;430.73;;;;;;;-141.22;100.00;65034.22;4958375;28;20523;-47
2023/03/14 09:02:52;;;;;;;452.17;428.53;;;;;;;-141.22;100.00;65034.22;4958255;28;20439;-42
2023/03/14 09:05:20;;;;;;;438.50;416.80;;;;;;;-141.22;100.00;65034.22;4958002;28;20547;-44
2023/03/14 09:07:48;;;;;;;423.80;402.53;;;;;;;-141.22;100.00;65034.22;4958170;28;20443;-41
2023/03/14 09:10:15;;;;;;;423.20;402.13;;;;;;;-141.22;100.00;65034.22;4956891;28;20474;-42
2023/03/14 09:12:43;;;;;;;423.73;403.03;;;;;;;-141.22;100.00;65034.22;4957068;28;20459;-44
2023/03/14 09:15:11;;;;;;;422.00;401.40;;;;;;;-141.22;100.00;65034.22;4957775;28;20442;-42
2023/03/14 09:17:40;;;;;;;441.67;419.30;;;;;;;-141.22;100.00;65034.22;4957989;28;20443;-42
2023/03/14 09:20:09;;;;;;;460.93;437.23;;;;;;;-141.22;100.00;65034.22;4957085;28;20460;-45
2023/03/14 09:22:37;;;;;;;457.53;434.50;;;;;;;-141.22;100.00;65034.22;4957863;28;20432;-42
2023/03/14 09:25:06;;;;;;;459.47;436.63;;;;;;;-141.22;100.00;65034.22;4957464;28;20442;-41
2023/03/14 09:27:34;;;;;;;457.03;433.73;;;;;;;-141.22;100.00;65034.22;4957505;28;20432;-42
2023/03/14 09:30:01;;;;;;;459.60;436.40;;;;;;;-141.22;100.00;65034.22;4956749;28;20972;-42
2023/03/14 09:32:31;;;;;;;461.70;437.93;;;;;;;-141.22;100.00;65034.22;4956539;28;20502;-41
2023/03/14 09:35:00;;;;;;;458.67;436.27;;;;;;;-141.22;100.00;65034.22;4956167;28;20938;-45
2023/03/14 09:37:27;;;;;;;450.30;429.10;;;;;;;-141.22;100.00;65034.22;4955651;28;20432;-47
2023/03/14 09:39:55;;;;;;;429.40;410.40;;;;;;;-141.22;100.00;65034.22;4955106;28;20439;-42
2023/03/14 09:42:26;;;;;;;442.60;422.70;;;;;;;-141.22;100.00;65034.22;4953925;28;20441;-42
2023/03/14 09:44:57;;;;;;;439.23;419.57;;;;;;;-141.22;100.00;65034.22;4955336;28;20432;-43
2023/03/14 09:47:25;;;;;;;444.57;425.03;;;;;;;-141.22;100.00;65034.22;4955072;28;20918;-44
2023/03/14 09:49:54;;;;;;;436.40;417.23;;;;;;;-141.22;100.00;65034.22;4955151;28;20830;-43
2023/03/14 09:52:27;;;;;;;434.00;415.30;;;;;;;-141.22;100.00;65034.22;4954787;28;20487;-45
2023/03/14 09:55:00;;;;;;;430.83;412.83;;;;;;;-141.22;100.00;65034.22;4955119;28;20439;-41
2023/03/14 09:57:28;;;;;;;410.10;393.40;;;;;;;-141.22;100.00;65034.22;4955207;28;20447;-43
2023/03/14 10:00:04;;;;;;;383.60;368.20;;;;;;;-141.22;100.00;65034.22;4954857;28;20498;-45
2023/03/14 10:02:35;;;;;;;339.03;325.83;;;;;;;-141.22;100.00;65034.22;4955302;28;20443;-44
2023/03/14 10:05:14;;;;;;;228.53;220.17;;;;;;;-141.22;100.00;65034.22;4955541;28;20929;-45
2023/03/14 10:07:44;;;;;;;157.40;151.93;;;;;;;-141.22;100.00;65034.22;4955920;28;20467;-42
2023/03/14 10:10:17;;;;;;;144.40;139.30;;;;;;;-141.22;100.00;65034.22;4955433;28;20470;-42
2023/03/14 10:12:47;;;;;;;120.00;115.47;;;;;;;-141.22;100.00;65034.22;4955760;28;21007;-41
2023/03/14 10:15:25;;;;;;;133.43;128.73;;;;;;;-141.22;100.00;65034.22;4955728;28;20811;-43
2023/03/14 10:17:53;;;;;;;113.70;109.30;;;;;;;-141.22;100.00;65034.22;4955770;28;20435;-43
2023/03/14 10:20:33;;;;;;;96.77;92.90;;;;;;;-141.22;100.00;65034.22;4955358;28;20826;-43
2023/03/14 10:23:04;;;;;;;76.83;73.70;;;;;;;-141.22;100.00;65034.22;4955191;28;20432;-41
2023/03/14 10:25:33;;;;;;;70.10;67.10;;;;;;;-141.22;100.00;65034.22;4955433;28;20544;-42
2023/03/14 10:28:02;;;;;;;63.30;60.37;;;;;;;-141.22;100.00;65034.22;4955202;28;20797;-42
2023/03/14 10:30:43;;;;;;;59.30;56.50;;;;;;;-141.22;100.00;65034.22;4955017;28;20463;-44
2023/03/14 10:33:20;;;;;;;61.77;58.87;;;;;;;-141.22;100.00;65034.22;4955142;28;20432;-42
2023/03/14 10:35:54;;;;;;;53.00;50.50;;;;;;;-141.22;100.00;65034.22;4954622;28;20525;-42
2023/03/14 10:38:24;;;;;;;47.67;45.53;;;;;;;-141.22;100.00;65034.22;4954891;28;20447;-42
2023/03/14 10:40:54;;;;;;;47.23;44.80;;;;;;;-141.22;100.00;65034.22;4954693;28;20463;-42
2023/03/14 10:43:26;;;;;;;45.20;42.80;;;;;;;-141.22;100.00;65034.22;4954769;28;20455;-42
2023/03/14 10:45:57;;;;;;;41.93;39.63;;;;;;;-141.22;100.00;65034.22;4954655;28;20466;-45
2023/03/14 10:48:32;;;;;;;43.77;41.70;;;;;;;-141.22;100.00;65034.22;4954991;28;20438;-44
2023/03/14 10:51:05;;;;;;;39.90;37.93;;;;;;;-141.22;100.00;65034.22;4954503;28;20546;-44
2023/03/14 10:53:44;;;;;;;40.00;38.10;;;;;;;-141.22;100.00;65034.22;4954773;28;20436;-42
2023/03/14 10:56:13;;;;;;;40.67;38.03;;;;;;;-141.22;100.00;65034.22;4954768;28;20456;-49
2023/03/14 10:58:43;;;;;;;38.80;36.67;;;;;;;-141.22;100.00;65034.22;4955249;28;20816;-45
2023/03/14 11:01:26;;;;;;;37.33;35.33;;;;;;;-141.22;100.00;65034.22;4954311;28;20466;-47